Irvington, AL (36544)

2:43 PM CDT on July 04, 2015 (GMT -0500)
Driftwood | | Change Station
CLOSE
Current Station
Personal Weather Station
Location: Irvington, AL
Elevation: 89 ft
Nearby Weather Stations

Elev 89 ft 30.45 °N, 88.22 °W | Updated 15 seconds ago

Partly Cloudy
Partly Cloudy
88.2 °F
Feels Like 104 °F
N
3.4
Wind Variable Wind from SSW
Gusts 4.9 mph

Today
High -- | Low -- °F
--% Chance of Precip.
Yesterday
High -- | Low -- °F
Precip. -- in
5:55 AM 7:59 PM
Waning Gibbous, 90% visible
Pressure 30.04 in
Visibility 10.0 miles
Clouds Scattered Clouds 4000 ft
Heat Index 104 °F
Dew Point 80 °F
Humidity 76%
Rainfall 0.00 in
Snow Depth Not available.
UV 4.0 out of 12
Pollen 2.10 out of 12
Air Quality Not available.
Flu Activity Not available.
METAR KBFM 041853Z 19009G14KT 10SM SCT040 32/22 A3004 RMK AO2 SLP172 T03220222

More Conditions Fewer Conditions

Pressure 30.04 in
Visibility 10.0 miles
Clouds Scattered Clouds 4000 ft
Heat Index 104 °F
Dew Point 80 °F
Humidity 76%
Rainfall 0.00 in
Snow Depth Not available.
UV 4.0 out of 12
Pollen 2.10 out of 12
Air Quality Not available.
Flu Activity Not available.
METAR KBFM 041853Z 19009G14KT 10SM SCT040 32/22 A3004 RMK AO2 SLP172 T03220222

More Conditions Fewer Conditions

10-Day Weather Forecast

×

Almanac

Astronomy

Jul. 04, 2015 Rise Set
Actual Time
Civil Twilight
Nautical Twilight
Astronomical Twilight
Moon
Length of Visible Light
Length of Day
Tomorrow will be .
, % of the Moon is Illuminated

Today's Extremes

State Highs State Lows

Community

WunderPhotos

Upload Photos

1,835,065 photos uploaded!

WunderBlogs® & News

Nearby

Air Quality

  Air Quality AQ Index Pollutant
Not available.

Snow Depth

Station Depth Elevation

Earthquake Activity

City Distance Mag. Time & Date
Minimum magnitude displayed is 2.5.

Coastal Water Temperatures

Place Temperature

Stations

Nearby Weather Stations

Station Location Temp. Windchill Dew Point Humidity Wind Precip. Elev Updated Type